Sky Acres, Vermont
Current Conditions -  °F | °C
As of 11:51 AM on Saturday 25 Oct 2014 (Local Time) from KMPV Reporting Station
Clear Clear  
Wind Chill: 53°   Ceiling: Unl
Heat Index: 53°   Visibility: 10mi
Dew Point: 39°   Wind: 5mph
Humidity: 59%   Direction: 360°N
Pressure: 29.73"   Gusts: NA
Location:  44.0671°N, 72.4216°W
Report Text: KMPV 251551Z AUTO 36004KT 10SM CLR 12/04 A2973 RMK AO2 SLP073 T01170039 $
Loading
Personal Weather Stations






























Interactive Weather Map
Tropical Storm Tracking
New forecast layout! Learn more

10-Day Weather Forecast

Advertisements
Track Severe Weather on mobile